Time;durP1;ratioP1;P1;durP2;ratioP2;P2;SDS_P1;SDS_P2;PMS_P1;PMS_P2;Temp;Humidity;BMP_temperature;BMP_pressure;BME280_temperature;BME280_humidity;BME280_pressure;Samples;Min_cycle;Max_cycle;Signal;HPM_P1;HPM_P2
2022/11/21 00:00:57;;;;;;;23.73;13.43;;;;;;;-0.55;100.00;100551.78;10583217;27;20069;-72
2022/11/21 00:05:57;;;;;;;24.70;13.87;;;;;;;-0.64;100.00;100532.13;10596677;27;20088;-71
2022/11/21 00:10:58;;;;;;;25.47;14.13;;;;;;;-0.45;100.00;100554.19;10541875;28;20044;-72
2022/11/21 00:16:06;;;;;;;24.60;14.23;;;;;;;-0.48;100.00;100546.44;10565734;27;20086;-71
2022/11/21 00:21:09;;;;;;;25.47;16.23;;;;;;;-0.46;100.00;100538.97;10582470;28;20032;-71
2022/11/21 00:26:10;;;;;;;25.63;14.63;;;;;;;-0.51;100.00;100530.63;10565012;27;20043;-71
2022/11/21 00:31:21;;;;;;;28.47;14.93;;;;;;;-0.55;100.00;100513.94;10579868;27;20050;-71
2022/11/21 00:36:21;;;;;;;25.63;14.87;;;;;;;-0.62;100.00;100513.84;10537574;28;20036;-71
2022/11/21 00:41:22;;;;;;;23.67;13.13;;;;;;;-0.64;100.00;100521.31;10521812;28;20032;-71
2022/11/21 00:46:22;;;;;;;23.03;14.47;;;;;;;-0.66;100.00;100534.19;10522962;28;20484;-71
2022/11/21 00:51:23;;;;;;;26.13;13.83;;;;;;;-0.67;100.00;100537.91;10528474;27;20036;-71
2022/11/21 00:56:24;;;;;;;30.87;15.73;;;;;;;-0.72;100.00;100526.84;10583048;27;20040;-71
2022/11/21 01:01:24;;;;;;;23.93;14.30;;;;;;;-0.79;100.00;100517.78;10582442;27;20506;-72
2022/11/21 01:06:25;;;;;;;26.52;15.15;;;;;;;-0.83;100.00;100500.28;10563845;28;20055;-72
2022/11/21 01:11:25;;;;;;;25.80;15.13;;;;;;;-0.91;100.00;100503.94;10562414;27;20032;-71
2022/11/21 01:16:26;;;;;;;26.43;14.57;;;;;;;-1.02;100.00;100510.63;10580894;27;20040;-71
2022/11/21 01:21:28;;;;;;;26.47;15.27;;;;;;;-1.26;100.00;100513.63;10581220;27;20035;-72
2022/11/21 01:26:30;;;;;;;28.23;15.33;;;;;;;-1.47;100.00;100525.16;10519600;28;20047;-71
2022/11/21 01:31:30;;;;;;;28.70;15.03;;;;;;;-1.71;100.00;100532.47;10521082;28;20043;-71
2022/11/21 01:36:31;;;;;;;29.77;16.53;;;;;;;-1.88;100.00;100530.91;10537540;28;20064;-72
2022/11/21 01:41:37;;;;;;;33.73;16.97;;;;;;;-2.04;100.00;100535.44;10520707;28;20040;-72
2022/11/21 01:46:37;;;;;;;33.83;18.52;;;;;;;-2.10;100.00;100540.72;10500491;28;20062;-71
2022/11/21 01:51:49;;;;;;;36.70;19.50;;;;;;;-2.21;100.00;100522.25;10506346;28;20069;-72
2022/11/21 01:57:07;;;;;;;34.40;18.93;;;;;;;-2.18;100.00;100532.69;10562877;28;20128;-71
2022/11/21 02:02:08;;;;;;;38.13;19.93;;;;;;;-2.16;100.00;100541.44;10535997;28;20487;-70
2022/11/21 02:07:09;;;;;;;36.13;19.50;;;;;;;-2.27;100.00;100532.75;10569820;28;20048;-71
2022/11/21 02:12:15;;;;;;;36.70;19.73;;;;;;;-2.21;100.00;100541.97;10535654;28;20078;-72
2022/11/21 02:17:16;;;;;;;;;;;;;;;-2.14;100.00;100544.78;10570124;28;20050;-71
2022/11/21 02:22:26;;;;;;;35.67;19.23;;;;;;;-1.97;100.00;100545.50;10551513;28;19919;-71
2022/11/21 02:27:27;;;;;;;39.60;19.83;;;;;;;-1.74;100.00;100537.38;10568709;28;20047;-71
2022/11/21 02:32:33;;;;;;;35.00;20.63;;;;;;;-1.63;100.00;100529.69;10568279;28;20390;-71
2022/11/21 02:37:36;;;;;;;;;;;;;;;-1.36;100.00;100550.88;10553102;28;20039;-72
2022/11/21 02:42:42;;;;;;;37.30;20.57;;;;;;;-1.26;100.00;100543.31;10587640;27;19916;-71
2022/11/21 02:47:43;;;;;;;;;;;;;;;-1.12;100.00;100534.41;10569244;28;20072;-71
2022/11/21 02:52:43;;;;;;;35.50;18.83;;;;;;;-1.05;100.00;100526.41;10568237;27;19991;-71
2022/11/21 02:57:44;;;;;;;35.20;20.17;;;;;;;-0.99;100.00;100525.66;10584844;27;20040;-71
2022/11/21 03:02:44;;;;;;;33.53;18.33;;;;;;;-0.90;100.00;100523.69;10585423;27;20040;-71
2022/11/21 03:07:45;;;;;;;33.50;18.93;;;;;;;-1.33;100.00;100445.19;10586888;27;20077;-71
2022/11/21 03:12:45;;;;;;;30.77;17.13;;;;;;;-0.86;100.00;100530.41;10569568;27;20034;-71
2022/11/21 03:17:47;;;;;;;39.47;18.50;;;;;;;-0.83;100.00;100521.91;10584139;27;20044;-71
2022/11/21 03:22:48;;;;;;;30.30;17.53;;;;;;;-0.80;100.00;100526.94;10566351;27;20044;-72
2022/11/21 03:27:52;;;;;;;32.43;18.13;;;;;;;-0.81;100.00;100509.03;10564997;27;20039;-71
2022/11/21 03:32:56;;;;;;;32.30;17.57;;;;;;;-0.76;100.00;100498.50;10566124;27;20036;-71
2022/11/21 03:37:56;;;;;;;33.70;19.33;;;;;;;-0.72;100.00;100507.91;10584707;27;20387;-71
2022/11/21 03:43:06;;;;;;;32.63;19.70;;;;;;;-0.78;100.00;100489.75;10586189;27;20032;-71
2022/11/21 03:48:07;;;;;;;35.33;18.03;;;;;;;-0.83;100.00;100481.34;10550990;28;20492;-71
2022/11/21 03:53:07;;;;;;;39.53;18.70;;;;;;;-0.85;100.00;100476.16;10582215;27;20059;-71
2022/11/21 03:58:08;;;;;;;34.10;18.67;;;;;;;-0.69;100.00;100512.94;10546178;28;20051;-71
2022/11/21 04:03:08;;;;;;;38.00;22.17;;;;;;;-0.62;100.00;100516.56;10558539;28;20040;-71
2022/11/21 04:08:08;;;;;;;38.87;19.90;;;;;;;-0.59;100.00;100506.41;10543573;28;20130;-71
2022/11/21 04:13:09;;;;;;;39.50;19.77;;;;;;;-0.57;100.00;100504.34;10541910;28;20028;-72
2022/11/21 04:18:10;;;;;;;36.27;20.90;;;;;;;-0.61;100.00;100482.25;10594116;27;20061;-72
2022/11/21 04:23:10;;;;;;;37.22;20.23;;;;;;;-0.58;100.00;100478.31;10565104;27;20055;-71
2022/11/21 04:28:11;;;;;;;37.27;19.67;;;;;;;-0.57;100.00;100463.78;10581439;27;20043;-69
2022/11/21 04:33:12;;;;;;;41.90;21.67;;;;;;;-0.52;100.00;100485.66;10566102;27;20035;-71
2022/11/21 04:38:13;;;;;;;40.03;20.83;;;;;;;-0.50;100.00;100491.72;10582988;28;20039;-71
2022/11/21 04:43:13;;;;;;;37.30;19.90;;;;;;;-0.45;100.00;100486.59;10582262;27;20054;-71
2022/11/21 04:48:14;;;;;;;32.87;19.03;;;;;;;-0.43;100.00;100476.41;10581043;27;20047;-71
2022/11/21 04:53:14;;;;;;;37.73;20.40;;;;;;;-0.40;100.00;100462.50;10563720;28;20036;-71
2022/11/21 04:58:14;;;;;;;38.87;21.10;;;;;;;-0.42;100.00;100462.69;10580744;28;20092;-72
2022/11/21 05:03:16;;;;;;;37.30;20.27;;;;;;;-0.54;100.00;100439.03;10581651;27;20103;-71
2022/11/21 05:08:16;;;;;;;36.10;20.13;;;;;;;-0.63;100.00;100466.22;10582071;28;20039;-71
2022/11/21 05:13:20;;;;;;;33.33;18.63;;;;;;;-0.81;100.00;100452.28;10582103;27;20494;-71
2022/11/21 05:18:20;;;;;;;37.17;20.00;;;;;;;-0.88;100.00;100443.25;10581922;27;20085;-72
2022/11/21 05:23:21;;;;;;;37.93;20.10;;;;;;;-1.15;100.00;100407.00;10563672;27;20540;-72
2022/11/21 05:28:21;;;;;;;41.03;23.03;;;;;;;-1.19;100.00;100409.22;10580167;27;20114;-71
2022/11/21 05:33:22;;;;;;;37.50;21.33;;;;;;;-1.23;100.00;100411.44;10579314;27;20060;-69
2022/11/21 05:38:22;;;;;;;43.93;23.77;;;;;;;-1.38;100.00;100407.94;10580970;28;20047;-71
2022/11/21 05:48:42;;;;;;;43.60;22.87;;;;;;;-1.61;100.00;100399.97;10623870;27;20069;-71
2022/11/21 05:53:42;;;;;;;40.47;22.30;;;;;;;-1.63;100.00;100423.59;10605599;27;20031;-71
2022/11/21 05:58:43;;;;;;;47.37;22.77;;;;;;;-1.75;100.00;100425.06;10622776;27;20035;-72
2022/11/21 06:03:43;;;;;;;45.00;23.00;;;;;;;-1.69;100.00;100454.03;10545686;28;20436;-71
2022/11/21 06:08:45;;;;;;;41.00;22.77;;;;;;;-1.74;100.00;100442.94;10578740;28;20370;-72
2022/11/21 06:13:45;;;;;;;44.10;24.50;;;;;;;-1.71;100.00;100431.78;10549013;28;20059;-71
2022/11/21 06:18:47;;;;;;;45.67;23.15;;;;;;;-1.74;100.00;100440.22;10538027;28;20043;-72
2022/11/21 06:23:52;;;;;;;46.13;24.70;;;;;;;-1.86;100.00;100438.00;10519695;28;20093;-72
2022/11/21 06:28:53;;;;;;;50.90;28.17;;;;;;;-1.99;100.00;100439.63;10545184;28;20033;-72
2022/11/21 06:33:54;;;;;;;50.30;27.37;;;;;;;-2.14;100.00;100418.03;10550038;28;20062;-72
2022/11/21 06:38:55;;;;;;;46.50;25.87;;;;;;;-2.25;100.00;100406.66;10578522;28;20047;-71
2022/11/21 06:43:58;;;;;;;45.07;24.07;;;;;;;-2.41;100.00;100398.72;10580989;27;20039;-72
2022/11/21 06:48:59;;;;;;;46.47;25.87;;;;;;;-2.36;100.00;100417.88;10568501;27;20054;-72
2022/11/21 06:53:59;;;;;;;55.50;25.30;;;;;;;-2.37;100.00;100424.28;10552735;27;20089;-71
2022/11/21 06:59:00;;;;;;;47.33;24.13;;;;;;;-2.42;100.00;100406.97;10586655;27;20428;-71
2022/11/21 07:04:00;;;;;;;51.23;25.97;;;;;;;-2.84;100.00;100360.63;10587422;27;20043;-72
2022/11/21 07:09:01;;;;;;;50.43;24.17;;;;;;;-2.53;100.00;100421.72;10586445;27;20068;-72
2022/11/21 07:14:01;;;;;;;47.30;24.60;;;;;;;-2.55;100.00;100423.75;10586985;27;20031;-72
2022/11/21 07:19:02;;;;;;;50.33;25.20;;;;;;;-2.76;100.00;100411.78;10586118;27;20103;-73
2022/11/21 07:24:02;;;;;;;57.33;26.80;;;;;;;-2.64;100.00;100431.91;10585464;27;20133;-72
2022/11/21 07:29:03;;;;;;;56.00;28.70;;;;;;;-2.64;100.00;100421.13;10587260;28;20032;-72
2022/11/21 07:34:03;;;;;;;57.70;27.80;;;;;;;-2.48;100.00;100435.47;10586592;27;20035;-72
2022/11/21 07:39:05;;;;;;;56.10;27.87;;;;;;;-2.54;100.00;100414.63;10584837;27;20531;-73
2022/11/21 07:44:05;;;;;;;55.20;27.40;;;;;;;-2.44;100.00;100417.94;10565636;27;20035;-73
2022/11/21 07:49:06;;;;;;;52.87;27.93;;;;;;;-2.41;100.00;100419.44;10566464;27;20032;-73
2022/11/21 07:54:06;;;;;;;60.63;30.87;;;;;;;-2.32;100.00;100451.53;10583345;27;20038;-71
2022/11/21 07:59:07;;;;;;;57.27;29.80;;;;;;;-2.21;100.00;100435.94;10567804;27;20063;-73
2022/11/21 08:04:07;;;;;;;55.97;28.70;;;;;;;-2.15;100.00;100413.66;10585154;27;20422;-73
2022/11/21 08:09:08;;;;;;;59.23;29.00;;;;;;;-2.16;100.00;100407.41;10585104;27;20422;-73
2022/11/21 08:14:08;;;;;;;57.77;27.87;;;;;;;-2.06;100.00;100416.09;10582187;27;20481;-73
2022/11/21 08:19:09;;;;;;;53.00;27.57;;;;;;;-1.99;100.00;100394.59;10582460;27;20031;-73
2022/11/21 08:24:13;;;;;;;56.17;28.07;;;;;;;-2.07;100.00;100367.72;10584709;27;20053;-72
2022/11/21 08:29:16;;;;;;;56.50;27.63;;;;;;;-1.98;100.00;100380.13;10582978;27;20058;-72
2022/11/21 08:34:17;;;;;;;54.33;27.33;;;;;;;-1.84;100.00;100395.47;10583048;27;20119;-73
2022/11/21 08:39:17;;;;;;;56.60;28.92;;;;;;;-1.79;100.00;100376.03;10583406;27;20036;-72
2022/11/21 08:44:18;;;;;;;56.97;28.83;;;;;;;-1.42;100.00;100398.53;10564756;27;20066;-73
2022/11/21 08:49:18;;;;;;;51.97;26.63;;;;;;;-1.38;100.00;100393.63;10581164;28;20046;-73
2022/11/21 08:54:21;;;;;;;51.07;26.70;;;;;;;-1.39;100.00;100378.41;10564816;27;20047;-72
2022/11/21 08:59:21;;;;;;;48.93;24.63;;;;;;;-1.35;100.00;100385.94;10583717;27;20076;-72
2022/11/21 09:04:22;;;;;;;49.77;26.37;;;;;;;-1.35;100.00;100390.53;10581628;28;20046;-73
2022/11/21 09:09:23;;;;;;;50.13;27.40;;;;;;;-1.26;100.00;100398.34;10580573;27;20069;-74
2022/11/21 09:19:42;;;;;;;51.93;27.97;;;;;;;-1.04;100.00;100385.69;10617028;27;20118;-72
2022/11/21 09:24:42;;;;;;;51.72;27.00;;;;;;;-0.94;100.00;100365.66;10587880;27;20039;-74
2022/11/21 09:29:43;;;;;;;49.03;26.40;;;;;;;-0.96;100.00;100310.97;10604587;27;20035;-73
2022/11/21 09:34:43;;;;;;;45.57;26.40;;;;;;;-0.40;100.00;100346.19;10619142;27;20024;-73
2022/11/21 09:39:44;;;;;;;44.93;25.30;;;;;;;-0.02;100.00;100356.69;10603647;27;20065;-73
2022/11/21 09:44:54;;;;;;;45.63;22.93;;;;;;;0.40;100.00;100365.69;10622101;27;20027;-73
2022/11/21 09:50:03;;;;;;;35.97;20.23;;;;;;;0.65;100.00;100357.06;10604076;27;20049;-72
2022/11/21 09:55:16;;;;;;;38.97;21.20;;;;;;;0.85;100.00;100343.56;10621267;27;20031;-72
2022/11/21 10:00:23;;;;;;;33.33;20.42;;;;;;;0.79;100.00;100307.31;10604270;27;20524;-72
2022/11/21 10:05:40;;;;;;;35.65;20.63;;;;;;;0.95;100.00;100328.63;10602500;27;20486;-73
2022/11/21 10:10:53;;;;;;;35.63;19.92;;;;;;;0.96;100.00;100300.44;10603504;27;20036;-73
2022/11/21 10:16:17;;;;;;;31.55;18.85;;;;;;;1.12;100.00;100303.84;10622813;27;20023;-72
2022/11/21 10:21:33;;;;;;;33.33;19.45;;;;;;;1.16;100.00;100272.56;10629450;27;20046;-71
2022/11/21 10:26:53;;;;;;;32.50;18.63;;;;;;;1.35;100.00;100279.84;10596365;27;20114;-72
2022/11/21 10:31:55;;;;;;;29.10;18.48;;;;;;;1.44;100.00;100257.94;10631065;27;20046;-72
2022/11/21 10:36:58;;;;;;;28.50;17.02;;;;;;;1.35;100.00;100217.47;10617528;27;20046;-72
2022/11/21 10:42:04;;;;;;;31.88;18.25;;;;;;;1.64;100.00;100236.22;10587185;27;20032;-72
2022/11/21 10:47:14;;;;;;;29.65;17.42;;;;;;;1.67;100.00;100220.34;10587241;27;20032;-72
2022/11/21 10:52:16;;;;;;;30.15;16.73;;;;;;;1.87;100.00;100222.19;10586688;27;20042;-72
2022/11/21 10:57:18;;;;;;;30.33;18.05;;;;;;;1.93;100.00;100213.19;10569346;27;20080;-72
2022/11/21 11:02:18;;;;;;;31.13;17.83;;;;;;;2.08;100.00;100211.03;10584964;27;20456;-72
2022/11/21 11:07:24;;;;;;;24.90;15.13;;;;;;;2.29;100.00;100218.03;10587938;27;20111;-72
2022/11/21 11:17:50;;;;;;;29.05;15.90;;;;;;;2.77;100.00;100197.69;10570216;27;20054;-70
2022/11/21 11:22:50;;;;;;;26.33;15.85;;;;;;;2.96;100.00;100191.31;10597087;27;20482;-72
2022/11/21 11:27:51;;;;;;;19.55;12.90;;;;;;;2.81;100.00;100193.50;10620051;27;20035;-71
2022/11/21 11:32:52;;;;;;;21.25;11.57;;;;;;;2.52;100.00;100130.59;10614691;27;20046;-72
2022/11/21 11:38:05;;;;;;;19.50;11.85;;;;;;;2.97;100.00;100187.53;10615938;27;20498;-72
2022/11/21 11:49:03;;;;;;;19.35;10.85;;;;;;;3.21;100.00;100166.81;10622359;27;20069;-69
2022/11/21 11:54:22;;;;;;;19.15;12.15;;;;;;;3.02;100.00;100156.97;10616098;27;20050;-72
2022/11/21 11:59:32;;;;;;;19.52;12.10;;;;;;;3.23;100.00;100148.38;10606889;27;20039;-73
2022/11/21 12:04:38;;;;;;;19.20;12.13;;;;;;;3.63;100.00;100131.63;10588493;27;20128;-72
2022/11/21 12:10:15;;;;;;;16.83;11.57;;;;;;;4.59;100.00;100110.03;10582356;27;20031;-73
2022/11/21 12:15:48;;;;;;;16.20;10.82;;;;;;;4.97;100.00;100086.13;10540336;28;20048;-72
2022/11/21 12:20:58;;;;;;;14.00;8.68;;;;;;;4.51;100.00;100096.75;10541228;28;20040;-72
2022/11/21 12:26:17;;;;;;;17.30;11.57;;;;;;;4.30;100.00;100083.63;10543077;28;20040;-71
2022/11/21 12:31:43;;;;;;;13.40;8.90;;;;;;;4.12;100.00;100063.56;10563083;27;20544;-71
2022/11/21 12:37:18;;;;;;;14.77;9.23;;;;;;;4.04;100.00;100050.28;10576808;28;20043;-71
2022/11/21 12:42:49;;;;;;;14.38;8.45;;;;;;;4.01;100.00;100031.66;10562770;27;20081;-71
2022/11/21 12:58:57;;;;;;;16.10;9.85;;;;;;;3.44;100.00;100002.09;10541044;27;20422;-70
2022/11/21 13:04:04;;;;;;;18.70;10.48;;;;;;;3.56;100.00;100018.47;10581936;28;20043;-70
2022/11/21 13:09:07;;;;;;;20.15;10.73;;;;;;;3.46;100.00;99993.69;10561949;28;20460;-71
2022/11/21 13:14:41;;;;;;;19.58;9.90;;;;;;;3.53;100.00;99999.88;10580310;27;20035;-70
2022/11/21 13:19:58;;;;;;;17.40;9.95;;;;;;;3.40;100.00;99982.66;10582400;27;20043;-70
2022/11/21 13:24:59;;;;;;;14.80;8.27;;;;;;;3.42;100.00;99977.81;10581974;28;20051;-70
2022/11/21 13:30:06;;;;;;;15.88;9.77;;;;;;;3.43;100.00;99995.81;10564311;28;20031;-71
2022/11/21 13:35:18;;;;;;;17.17;9.07;;;;;;;3.37;100.00;99988.56;10572290;27;20637;-71
2022/11/21 13:40:30;;;;;;;14.63;8.82;;;;;;;3.39;100.00;99982.88;10517444;28;20043;-70
2022/11/21 13:45:37;;;;;;;16.02;9.48;;;;;;;3.31;100.00;99989.47;10514608;28;20443;-71
2022/11/21 13:51:15;;;;;;;12.13;7.20;;;;;;;3.18;100.00;99989.63;10557019;28;20070;-71
2022/11/21 13:56:25;;;;;;;15.10;8.45;;;;;;;3.19;100.00;99983.16;10541835;27;20051;-71
2022/11/21 14:01:28;;;;;;;11.45;7.38;;;;;;;3.14;100.00;99970.25;10562971;27;20063;-71
2022/11/21 14:06:43;;;;;;;13.45;8.18;;;;;;;3.12;100.00;99968.78;10543090;27;20061;-71
2022/11/21 14:11:48;;;;;;;15.07;8.27;;;;;;;3.16;100.00;99961.81;10543653;28;20560;-70
2022/11/21 14:16:51;;;;;;;10.85;7.47;;;;;;;3.35;100.00;99936.28;10553604;27;20040;-71
2022/11/21 14:21:51;;;;;;;10.27;7.43;;;;;;;3.60;100.00;99929.88;10531978;28;20134;-71
2022/11/21 14:26:52;;;;;;;11.30;7.55;;;;;;;3.66;100.00;99919.91;10539476;28;20054;-72
2022/11/21 14:31:53;;;;;;;12.43;9.10;;;;;;;3.68;100.00;99907.75;10511606;28;20055;-71
2022/11/21 14:36:54;;;;;;;13.25;8.23;;;;;;;3.54;100.00;99892.69;10544894;28;20035;-71
2022/11/21 14:41:55;;;;;;;12.57;8.23;;;;;;;3.49;100.00;99917.03;10555957;27;20119;-71
2022/11/21 14:47:22;;;;;;;16.63;10.10;;;;;;;3.34;100.00;99893.78;10506066;27;20185;-71
2022/11/21 14:52:27;;;;;;;15.40;9.73;;;;;;;3.25;100.00;99895.19;10501685;28;20038;-71
2022/11/21 14:57:29;;;;;;;15.35;9.80;;;;;;;3.12;100.00;99873.59;10486233;28;20085;-71
2022/11/21 15:02:30;;;;;;;18.20;10.43;;;;;;;3.02;100.00;99864.09;10510479;27;20100;-71
2022/11/21 15:07:39;;;;;;;17.63;10.57;;;;;;;2.91;100.00;99873.03;10528083;27;20055;-71
2022/11/21 15:12:45;;;;;;;17.75;10.40;;;;;;;2.85;100.00;99868.50;10549401;27;20099;-71
2022/11/21 15:17:46;;;;;;;;;;;;;;;2.82;100.00;99864.34;10586558;27;20448;-71
2022/11/21 15:22:47;;;;;;;14.23;9.20;;;;;;;2.79;100.00;99863.97;10551970;27;19941;-71
2022/11/21 15:27:49;;;;;;;17.85;10.75;;;;;;;2.78;100.00;99854.19;10562431;28;20042;-71
2022/11/21 15:33:02;;;;;;;16.23;9.73;;;;;;;2.81;100.00;99850.97;10563910;27;20032;-71
2022/11/21 15:38:18;;;;;;;15.43;10.15;;;;;;;2.81;100.00;99856.41;10565821;27;20047;-71
2022/11/21 15:43:40;;;;;;;16.98;10.40;;;;;;;2.76;100.00;99829.94;10563341;27;20044;-71
2022/11/21 15:48:43;;;;;;;19.42;10.30;;;;;;;2.83;100.00;99827.13;10544121;27;20096;-71
2022/11/21 15:53:44;;;;;;;21.25;12.77;;;;;;;2.67;100.00;99795.13;10504234;28;20123;-71
2022/11/21 15:58:45;;;;;;;19.33;11.02;;;;;;;2.85;100.00;99821.47;10521796;28;20120;-71
2022/11/21 16:03:54;;;;;;;23.38;12.18;;;;;;;2.90;100.00;99825.16;10520426;28;20035;-71
2022/11/21 16:08:54;;;;;;;27.27;14.02;;;;;;;2.87;100.00;99816.63;10545778;27;20031;-71
2022/11/21 16:13:59;;;;;;;25.17;12.60;;;;;;;2.87;100.00;99817.44;10561502;27;20024;-71
2022/11/21 16:18:59;;;;;;;26.95;14.30;;;;;;;2.88;100.00;99808.25;10558096;27;20063;-71
2022/11/21 16:24:00;;;;;;;23.77;12.90;;;;;;;2.86;100.00;99791.34;10562221;27;20037;-71
2022/11/21 16:29:04;;;;;;;27.58;14.55;;;;;;;2.74;100.00;99774.16;10543127;28;20043;-71
2022/11/21 16:34:04;;;;;;;26.90;13.48;;;;;;;2.85;100.00;99797.81;10561883;27;20047;-70
2022/11/21 16:39:05;;;;;;;39.17;18.80;;;;;;;2.86;100.00;99787.78;10561017;27;20078;-71
2022/11/21 16:44:15;;;;;;;44.80;19.25;;;;;;;2.85;100.00;99781.50;10562092;28;20111;-71
2022/11/21 16:49:16;;;;;;;46.60;19.58;;;;;;;2.89;100.00;99782.72;10542623;27;20091;-71
2022/11/21 16:54:16;;;;;;;43.50;19.13;;;;;;;2.97;100.00;99768.78;10560989;28;20039;-71
2022/11/21 16:59:17;;;;;;;44.90;21.00;;;;;;;2.94;100.00;99757.56;10560304;27;20039;-71
2022/11/21 17:04:17;;;;;;;47.83;19.88;;;;;;;2.94;100.00;99747.50;10559959;28;20450;-71
2022/11/21 17:09:17;;;;;;;42.67;19.25;;;;;;;2.95;100.00;99735.56;10572766;27;20063;-71
2022/11/21 17:14:18;;;;;;;47.38;20.67;;;;;;;2.90;100.00;99713.69;10557107;28;20038;-71
2022/11/21 17:19:18;;;;;;;47.88;18.70;;;;;;;2.94;100.00;99711.34;10542443;28;20089;-70
2022/11/21 17:24:19;;;;;;;52.53;21.65;;;;;;;3.02;100.00;99711.84;10540137;27;20036;-71
2022/11/21 17:29:19;;;;;;;38.88;16.58;;;;;;;3.01;100.00;99702.00;10559149;27;20036;-71
2022/11/21 17:34:20;;;;;;;38.28;16.65;;;;;;;2.94;100.00;99671.38;10516663;28;20077;-71
2022/11/21 17:39:20;;;;;;;31.35;15.23;;;;;;;2.93;100.00;99667.00;10517990;28;20054;-71
2022/11/21 17:44:21;;;;;;;36.05;15.30;;;;;;;2.93;100.00;99663.47;10563494;28;20036;-71
2022/11/21 17:49:22;;;;;;;33.53;15.77;;;;;;;2.90;100.00;99648.44;10580235;27;20595;-71
2022/11/21 17:54:22;;;;;;;32.13;15.00;;;;;;;2.87;100.00;99648.91;10589610;27;20031;-71
2022/11/21 17:59:23;;;;;;;30.48;15.80;;;;;;;2.83;100.00;99654.00;10579584;28;20027;-71
2022/11/21 18:04:23;;;;;;;42.38;19.05;;;;;;;2.74;100.00;99654.56;10594857;27;20035;-71
2022/11/21 18:09:24;;;;;;;43.55;19.55;;;;;;;2.65;100.00;99645.94;10578153;28;20036;-71
2022/11/21 18:14:24;;;;;;;37.10;18.10;;;;;;;2.63;100.00;99632.56;10579407;28;20188;-71
2022/11/21 18:19:25;;;;;;;38.30;17.95;;;;;;;2.79;100.00;99657.41;10580100;27;20102;-71
2022/11/21 18:24:26;;;;;;;37.85;18.30;;;;;;;2.87;100.00;99669.84;10580636;28;20035;-70
2022/11/21 18:29:27;;;;;;;41.60;18.30;;;;;;;2.86;100.00;99666.28;10581130;27;20028;-71
2022/11/21 18:34:27;;;;;;;40.13;19.63;;;;;;;2.32;100.00;99584.78;10578314;28;20039;-71
2022/11/21 18:39:28;;;;;;;44.35;18.27;;;;;;;2.76;100.00;99641.56;10576052;28;20047;-69
2022/11/21 18:44:28;;;;;;;48.45;21.00;;;;;;;2.93;100.00;99658.84;10587753;27;20047;-71
2022/11/21 18:49:28;;;;;;;42.05;19.02;;;;;;;2.94;100.00;99651.53;10552283;27;20032;-70
2022/11/21 18:54:29;;;;;;;45.90;22.23;;;;;;;2.89;100.00;99635.91;10601928;27;20039;-71
2022/11/21 18:59:29;;;;;;;47.58;21.48;;;;;;;2.96;100.00;99630.38;10570829;27;20157;-72
2022/11/21 19:04:30;;;;;;;49.53;20.52;;;;;;;2.94;100.00;99638.78;10619948;27;20487;-72
2022/11/21 19:09:31;;;;;;;51.45;22.15;;;;;;;2.93;100.00;99626.22;10586746;27;20096;-71
2022/11/21 19:14:32;;;;;;;50.75;22.65;;;;;;;2.64;100.00;99579.03;10567342;27;20529;-71
2022/11/21 19:19:32;;;;;;;53.60;21.40;;;;;;;2.68;100.00;99568.53;10617560;27;20042;-72
2022/11/21 19:24:33;;;;;;;52.80;21.65;;;;;;;2.96;100.00;99612.16;10627060;27;20482;-71
2022/11/21 19:29:33;;;;;;;55.67;23.85;;;;;;;2.93;100.00;99607.19;10622534;27;20147;-71
2022/11/21 19:34:34;;;;;;;56.50;23.48;;;;;;;3.03;100.00;99621.03;10607835;27;20042;-71
2022/11/21 19:39:34;;;;;;;57.85;22.50;;;;;;;2.89;100.00;99597.84;10597824;27;20031;-71
2022/11/21 19:44:35;;;;;;;46.70;22.48;;;;;;;2.88;100.00;99600.81;10584120;27;20044;-71
2022/11/21 19:49:35;;;;;;;42.05;22.00;;;;;;;2.81;100.00;99606.34;10548728;27;20032;-71
2022/11/21 19:54:36;;;;;;;43.92;22.00;;;;;;;2.76;100.00;99595.38;10566497;27;20039;-71
2022/11/21 19:59:36;;;;;;;42.47;18.75;;;;;;;2.74;100.00;99589.34;10566361;27;20036;-71
2022/11/21 20:04:37;;;;;;;41.70;20.55;;;;;;;2.54;100.00;99557.03;10582260;28;20040;-71
2022/11/21 20:09:37;;;;;;;42.13;19.50;;;;;;;2.49;100.00;99555.03;10584734;27;20031;-71
2022/11/21 20:14:38;;;;;;;41.33;20.02;;;;;;;2.34;100.00;99535.66;10584100;27;20043;-71
2022/11/21 20:19:38;;;;;;;40.28;18.85;;;;;;;2.12;100.00;99516.34;10582081;27;20032;-70
2022/11/21 20:24:39;;;;;;;45.88;21.45;;;;;;;2.04;100.00;99520.22;10583369;27;20043;-69
2022/11/21 20:29:39;;;;;;;41.67;19.70;;;;;;;1.90;100.00;99497.91;10567336;27;20032;-73
2022/11/21 20:34:39;;;;;;;45.00;20.92;;;;;;;1.84;100.00;99503.38;10590299;27;20031;-70
2022/11/21 20:39:40;;;;;;;40.33;20.50;;;;;;;1.77;100.00;99509.75;10615018;27;20385;-71
2022/11/21 20:44:40;;;;;;;49.83;22.80;;;;;;;1.79;100.00;99513.06;10625913;27;20076;-71
2022/11/21 20:49:41;;;;;;;48.70;22.15;;;;;;;1.75;100.00;99511.84;10625669;27;20038;-71
2022/11/21 20:54:41;;;;;;;46.83;22.37;;;;;;;1.68;100.00;99505.72;10587374;27;20039;-70
2022/11/21 20:59:42;;;;;;;47.38;23.20;;;;;;;1.61;100.00;99516.66;10581445;27;20040;-71
2022/11/21 21:04:42;;;;;;;46.88;22.33;;;;;;;1.71;100.00;99532.38;10577869;27;20038;-71
2022/11/21 21:09:43;;;;;;;39.97;19.75;;;;;;;1.56;100.00;99521.09;10580663;27;20099;-71
2022/11/21 21:14:43;;;;;;;45.25;20.50;;;;;;;1.59;100.00;99534.19;10579872;27;20027;-71
2022/11/21 21:19:44;;;;;;;41.10;19.48;;;;;;;1.39;100.00;99496.50;10563468;28;20065;-71
2022/11/21 21:24:44;;;;;;;46.55;19.65;;;;;;;1.54;100.00;99521.31;10580595;27;20065;-71
2022/11/21 21:29:45;;;;;;;44.50;20.23;;;;;;;1.47;100.00;99503.47;10610271;27;20046;-71
2022/11/21 21:34:45;;;;;;;40.83;20.05;;;;;;;1.35;100.00;99485.28;10622503;27;20064;-71
2022/11/21 21:39:46;;;;;;;48.27;21.97;;;;;;;1.41;100.00;99478.94;10605235;27;20039;-69
2022/11/21 21:44:46;;;;;;;43.72;20.48;;;;;;;1.34;100.00;99467.31;10622209;27;21087;-71
2022/11/21 21:49:47;;;;;;;38.78;19.67;;;;;;;1.29;100.00;99450.94;10624351;27;20032;-71
2022/11/21 21:54:47;;;;;;;43.13;20.02;;;;;;;1.25;100.00;99441.59;10588543;27;20066;-71
2022/11/21 21:59:48;;;;;;;38.33;18.00;;;;;;;1.24;100.00;99452.66;10621925;27;20035;-71
2022/11/21 22:04:48;;;;;;;38.42;18.02;;;;;;;1.22;100.00;99447.50;10622180;27;20505;-71
2022/11/21 22:09:49;;;;;;;33.88;17.15;;;;;;;1.06;100.00;99421.00;10622531;27;20039;-71
2022/11/21 22:14:49;;;;;;;40.95;18.50;;;;;;;1.16;100.00;99434.84;10615424;27;20065;-71
2022/11/21 22:19:50;;;;;;;36.37;18.27;;;;;;;1.16;100.00;99432.13;10624904;27;20039;-69
2022/11/21 22:24:50;;;;;;;35.13;17.23;;;;;;;1.18;100.00;99424.59;10613194;27;20060;-70
2022/11/21 22:29:51;;;;;;;37.42;18.13;;;;;;;1.22;100.00;99420.38;10628668;27;20038;-71
2022/11/21 22:34:51;;;;;;;33.72;17.15;;;;;;;1.27;100.00;99428.63;10629719;27;20099;-70
2022/11/21 22:39:52;;;;;;;38.15;18.17;;;;;;;1.29;100.00;99436.56;10611405;27;20060;-71
2022/11/21 22:44:53;;;;;;;31.73;15.48;;;;;;;1.31;100.00;99424.41;10627042;27;20047;-73
2022/11/21 22:49:53;;;;;;;28.92;16.27;;;;;;;1.24;100.00;99406.56;10624537;27;20434;-70
2022/11/21 22:54:54;;;;;;;30.25;16.67;;;;;;;1.19;100.00;99399.13;10628260;27;20122;-70
2022/11/21 22:59:54;;;;;;;30.48;16.27;;;;;;;1.33;100.00;99411.47;10609720;27;20039;-71
2022/11/21 23:04:55;;;;;;;30.90;15.38;;;;;;;1.34;100.00;99406.84;10618273;27;20084;-72
2022/11/21 23:09:56;;;;;;;28.38;15.30;;;;;;;1.38;100.00;99417.00;10620025;27;20035;-71
2022/11/21 23:14:56;;;;;;;29.13;17.13;;;;;;;1.35;100.00;99408.53;10608838;27;20110;-71
2022/11/21 23:19:57;;;;;;;31.40;16.85;;;;;;;1.47;100.00;99427.53;10627277;27;20549;-71